createdAt,value
2018-04-29T00:00:15.693Z,16.93
2018-04-29T00:02:42.677Z,18.13
2018-04-29T00:05:29.034Z,19.10
2018-04-29T00:08:14.491Z,16.93
2018-04-29T00:10:41.505Z,18.20
2018-04-29T00:13:09.065Z,20.00
2018-04-29T00:15:36.076Z,18.50
2018-04-29T00:18:03.168Z,18.43
2018-04-29T00:20:30.212Z,19.30
2018-04-29T00:22:57.430Z,20.27
2018-04-29T00:25:24.514Z,19.77
2018-04-29T00:27:51.562Z,20.57
2018-04-29T00:30:18.616Z,21.27
2018-04-29T00:32:45.660Z,20.90
2018-04-29T00:35:12.708Z,20.47
2018-04-29T00:37:39.763Z,21.27
2018-04-29T00:40:08.620Z,21.73
2018-04-29T00:42:35.715Z,20.43
2018-04-29T00:45:02.753Z,21.20
2018-04-29T00:47:31.439Z,21.90
2018-04-29T00:49:58.897Z,21.40
2018-04-29T00:52:26.146Z,19.93
2018-04-29T00:54:53.200Z,21.63
2018-04-29T00:57:20.412Z,22.27
2018-04-29T00:59:47.499Z,22.37
2018-04-29T01:02:14.544Z,21.17
2018-04-29T01:04:41.600Z,23.60
2018-04-29T01:07:08.647Z,21.90
2018-04-29T01:09:35.689Z,21.97
2018-04-29T01:12:02.744Z,22.10
2018-04-29T01:14:29.792Z,21.73
2018-04-29T01:16:56.838Z,20.77
2018-04-29T01:19:23.887Z,21.47
2018-04-29T01:21:52.058Z,19.93
2018-04-29T01:24:19.218Z,19.63
2018-04-29T01:26:46.258Z,18.13
2018-04-29T01:29:13.314Z,20.67
2018-04-29T01:31:40.355Z,21.20
2018-04-29T01:34:07.404Z,20.07
2018-04-29T01:36:35.687Z,21.63
2018-04-29T01:39:02.738Z,21.80
2018-04-29T01:41:29.884Z,20.17
2018-04-29T01:43:56.930Z,21.27
2018-04-29T01:46:23.985Z,20.33
2018-04-29T01:48:51.141Z,21.43
2018-04-29T01:51:18.178Z,21.23
2018-04-29T01:53:46.360Z,21.23
2018-04-29T01:56:13.402Z,21.23
2018-04-29T01:58:40.451Z,19.53
2018-04-29T02:01:08.318Z,19.57
2018-04-29T02:03:35.367Z,20.87
2018-04-29T02:06:02.420Z,21.67
2018-04-29T02:08:29.463Z,20.50
2018-04-29T02:10:56.515Z,20.70
2018-04-29T02:13:24.688Z,20.37
2018-04-29T02:15:51.737Z,21.60
2018-04-29T02:18:18.790Z,21.47
2018-04-29T02:20:46.251Z,21.53
2018-04-29T02:23:13.291Z,19.97
2018-04-29T02:25:40.340Z,21.23
2018-04-29T02:28:07.702Z,22.00
2018-04-29T02:30:34.748Z,20.83
2018-04-29T02:33:01.798Z,20.40
2018-04-29T02:35:28.947Z,19.40
2018-04-29T02:37:55.998Z,20.40
2018-04-29T02:40:23.013Z,18.73
2018-04-29T02:42:50.405Z,19.60
2018-04-29T02:45:17.452Z,19.30
2018-04-29T02:47:44.496Z,20.23
2018-04-29T02:50:12.163Z,18.03
2018-04-29T02:52:39.211Z,19.17
2018-04-29T02:55:06.254Z,18.87
2018-04-29T02:57:33.916Z,18.23
2018-04-29T03:00:00.974Z,19.27
2018-04-29T03:02:28.015Z,18.50
2018-04-29T03:04:55.064Z,17.33
2018-04-29T03:07:22.118Z,16.20
2018-04-29T03:09:49.160Z,17.27
2018-04-29T03:12:16.210Z,17.43
2018-04-29T03:14:44.284Z,16.80
2018-04-29T03:17:11.335Z,16.73
2018-04-29T03:19:38.379Z,16.83
2018-04-29T03:22:05.427Z,16.33
2018-04-29T03:24:32.487Z,18.23
2018-04-29T03:26:59.524Z,17.03
2018-04-29T03:29:26.574Z,15.40
2018-04-29T03:31:53.630Z,16.17
2018-04-29T03:34:20.671Z,15.40
2018-04-29T03:36:49.665Z,15.70
2018-04-29T03:39:16.712Z,15.50
2018-04-29T03:41:43.864Z,15.70
2018-04-29T03:44:10.918Z,15.73
2018-04-29T03:46:38.988Z,16.13
2018-04-29T03:49:06.139Z,15.50
2018-04-29T03:51:33.907Z,16.27
2018-04-29T03:54:02.079Z,16.30
2018-04-29T03:56:30.149Z,15.73
2018-04-29T03:59:03.137Z,14.43
2018-04-29T04:01:36.226Z,16.33
2018-04-29T04:04:03.380Z,15.07
2018-04-29T04:06:31.449Z,14.70
2018-04-29T04:08:58.499Z,14.50
2018-04-29T04:11:25.623Z,15.13
2018-04-29T04:13:53.626Z,14.37
2018-04-29T04:16:20.668Z,14.20
2018-04-29T04:18:47.721Z,14.20
2018-04-29T04:21:14.774Z,15.13
2018-04-29T04:23:41.871Z,13.83
2018-04-29T04:26:08.866Z,13.80
2018-04-29T04:28:35.915Z,13.67
2018-04-29T04:31:02.962Z,13.40
2018-04-29T04:33:30.119Z,13.03
2018-04-29T04:35:57.471Z,13.77
2018-04-29T04:38:24.521Z,13.03
2018-04-29T04:40:51.567Z,12.73
2018-04-29T04:43:18.823Z,13.00
2018-04-29T04:45:45.866Z,14.17
2018-04-29T04:48:12.914Z,13.03
2018-04-29T04:50:40.867Z,13.67
2018-04-29T04:53:07.830Z,14.63
2018-04-29T04:55:34.946Z,14.60
2018-04-29T04:58:02.037Z,13.87
2018-04-29T05:00:29.080Z,14.73
2018-04-29T05:02:56.127Z,14.40
2018-04-29T05:05:23.179Z,14.53
2018-04-29T05:07:51.253Z,15.30
2018-04-29T05:10:18.296Z,15.37
2018-04-29T05:12:46.063Z,14.93
2018-04-29T05:15:13.110Z,14.83
2018-04-29T05:17:41.047Z,15.07
2018-04-29T05:20:08.132Z,15.57
2018-04-29T05:22:35.178Z,15.27
2018-04-29T05:25:02.328Z,14.67
2018-04-29T05:27:29.382Z,14.47
2018-04-29T05:29:56.425Z,15.43
2018-04-29T05:32:23.992Z,14.87
2018-04-29T05:34:51.035Z,14.00
2018-04-29T05:37:18.083Z,14.73
2018-04-29T05:39:45.236Z,14.57
2018-04-29T05:42:12.288Z,14.23
2018-04-29T05:44:39.441Z,14.23
2018-04-29T05:47:06.497Z,13.77
2018-04-29T05:49:33.493Z,13.87
2018-04-29T05:52:00.586Z,13.53
2018-04-29T05:54:27.629Z,13.53
2018-04-29T05:56:55.396Z,12.70
2018-04-29T05:59:22.444Z,12.63
2018-04-29T06:01:50.823Z,13.10
2018-04-29T06:04:17.973Z,13.37
2018-04-29T06:06:47.303Z,14.40
2018-04-29T06:09:15.930Z,13.33
2018-04-29T06:11:43.016Z,12.67
2018-04-29T06:14:10.071Z,12.93
2018-04-29T06:16:37.211Z,12.63
2018-04-29T06:19:04.262Z,12.53
2018-04-29T06:21:31.313Z,12.60
2018-04-29T06:23:58.664Z,12.57
2018-04-29T06:26:25.712Z,11.97
2018-04-29T06:28:52.725Z,10.67
2018-04-29T06:31:20.225Z,12.03
2018-04-29T06:33:47.282Z,10.97
2018-04-29T06:36:14.726Z,11.13
2018-04-29T06:38:41.787Z,12.00
2018-04-29T06:41:08.926Z,12.07
2018-04-29T06:43:36.077Z,10.63
2018-04-29T06:46:04.359Z,11.67
2018-04-29T06:48:33.352Z,10.67
2018-04-29T06:51:00.396Z,11.50
2018-04-29T06:53:27.558Z,11.70
2018-04-29T06:55:54.596Z,10.43
2018-04-29T06:58:22.672Z,10.67
2018-04-29T07:00:52.868Z,11.13
2018-04-29T07:03:20.044Z,10.70
2018-04-29T07:05:47.096Z,11.70
2018-04-29T07:08:16.208Z,10.57
2018-04-29T07:10:43.241Z,10.77
2018-04-29T07:13:10.458Z,10.83
2018-04-29T07:15:37.950Z,9.97
2018-04-29T07:18:05.001Z,10.73
2018-04-29T07:20:37.268Z,10.97
2018-04-29T07:23:06.159Z,9.87
2018-04-29T07:25:33.927Z,9.43
2018-04-29T07:28:00.979Z,9.43
2018-04-29T07:30:28.949Z,9.73
2018-04-29T07:32:55.993Z,10.13
2018-04-29T07:35:24.068Z,9.97
2018-04-29T07:37:52.044Z,9.30
2018-04-29T07:40:20.210Z,9.83
2018-04-29T07:42:48.282Z,9.77
2018-04-29T07:45:16.154Z,10.60
2018-04-29T07:47:44.158Z,10.43
2018-04-29T07:50:11.271Z,9.37
2018-04-29T07:52:41.036Z,9.53
2018-04-29T07:55:10.284Z,8.90
2018-04-29T07:57:39.792Z,8.27
2018-04-29T08:00:08.170Z,7.63
2018-04-29T08:02:36.521Z,7.77
2018-04-29T08:05:04.110Z,8.20
2018-04-29T08:07:31.158Z,9.00
2018-04-29T08:09:59.641Z,9.80
2018-04-29T08:12:28.226Z,8.67
2018-04-29T08:14:55.381Z,8.90
2018-04-29T08:17:22.431Z,9.53
2018-04-29T08:19:49.477Z,9.00
2018-04-29T08:22:16.524Z,8.37
2018-04-29T08:24:43.577Z,7.90
2018-04-29T08:27:10.733Z,8.63
2018-04-29T08:29:38.084Z,8.53
2018-04-29T08:32:05.126Z,7.67
2018-04-29T08:34:32.181Z,7.60
2018-04-29T08:36:59.294Z,6.82
2018-04-29T08:39:26.274Z,7.10
2018-04-29T08:41:53.343Z,8.35
2018-04-29T08:44:20.370Z,8.00
2018-04-29T08:46:47.419Z,8.05
2018-04-29T08:49:14.472Z,6.70
2018-04-29T08:51:44.153Z,6.65
2018-04-29T08:54:11.232Z,7.70
2018-04-29T08:56:39.096Z,7.05
2018-04-29T08:59:06.149Z,8.40
2018-04-29T09:01:33.194Z,7.78
2018-04-29T09:04:00.306Z,8.07
2018-04-29T09:06:27.296Z,7.60
2018-04-29T09:08:55.180Z,6.95
2018-04-29T09:11:22.215Z,7.50
2018-04-29T09:13:49.253Z,8.07
2018-04-29T09:16:16.301Z,8.68
2018-04-29T09:18:43.454Z,7.43
2018-04-29T09:21:10.508Z,7.18
2018-04-29T09:23:37.556Z,7.95
2018-04-29T09:26:04.600Z,8.40
2018-04-29T09:28:31.657Z,8.93
2018-04-29T09:30:58.697Z,8.25
2018-04-29T09:33:25.745Z,7.93
2018-04-29T09:35:52.999Z,7.70
2018-04-29T09:38:20.047Z,8.35
2018-04-29T09:40:47.198Z,7.80
2018-04-29T09:43:14.328Z,7.50
2018-04-29T09:45:41.404Z,7.62
2018-04-29T09:48:08.554Z,7.80
2018-04-29T09:50:36.892Z,7.72
2018-04-29T09:53:03.977Z,7.20
2018-04-29T09:55:31.025Z,8.07
2018-04-29T09:57:58.175Z,7.75
2018-04-29T10:00:27.169Z,6.85
2018-04-29T10:02:54.321Z,7.07
2018-04-29T10:05:21.378Z,7.25
2018-04-29T10:07:48.419Z,6.97
2018-04-29T10:10:15.469Z,7.32
2018-04-29T10:12:42.521Z,7.07
2018-04-29T10:15:09.563Z,6.65
2018-04-29T10:17:36.612Z,7.60
2018-04-29T10:20:03.665Z,7.10
2018-04-29T10:22:31.226Z,7.72
2018-04-29T10:24:58.276Z,7.57
2018-04-29T10:27:25.321Z,7.60
2018-04-29T10:29:52.371Z,7.82
2018-04-29T10:32:19.506Z,7.15
2018-04-29T10:34:46.573Z,7.30
2018-04-29T10:37:13.725Z,7.60
2018-04-29T10:39:41.073Z,6.95
2018-04-29T10:42:09.043Z,6.82
2018-04-29T10:44:36.099Z,7.20
2018-04-29T10:47:03.141Z,6.97
2018-04-29T10:49:30.191Z,6.20
2018-04-29T10:51:57.244Z,7.85
2018-04-29T10:54:24.287Z,7.53
2018-04-29T10:56:51.547Z,7.07
2018-04-29T10:59:18.593Z,7.57
2018-04-29T11:01:45.638Z,7.60
2018-04-29T11:04:12.724Z,7.03
2018-04-29T11:06:39.845Z,8.48
2018-04-29T11:09:06.887Z,8.02
2018-04-29T11:11:33.934Z,7.18
2018-04-29T11:14:00.988Z,8.15
2018-04-29T11:16:29.368Z,7.30
2018-04-29T11:18:56.412Z,7.18
2018-04-29T11:21:23.458Z,6.85
2018-04-29T11:23:50.920Z,7.55
2018-04-29T11:26:18.068Z,7.28
2018-04-29T11:28:45.905Z,6.97
2018-04-29T11:31:15.437Z,6.90
2018-04-29T11:33:42.495Z,6.65
2018-04-29T11:36:09.540Z,6.15
2018-04-29T11:38:36.590Z,6.50
2018-04-29T11:41:03.642Z,6.10
2018-04-29T11:43:30.696Z,7.50
2018-04-29T11:45:58.673Z,6.20
2018-04-29T11:48:25.711Z,6.75
2018-04-29T11:50:52.753Z,6.28
2018-04-29T11:53:19.803Z,6.37
2018-04-29T11:55:46.859Z,6.50
2018-04-29T11:58:13.900Z,6.75
2018-04-29T12:00:41.265Z,5.95
2018-04-29T12:03:08.615Z,6.28
2018-04-29T12:05:35.659Z,6.40
2018-04-29T12:08:02.706Z,6.68
2018-04-29T12:10:29.761Z,5.68
2018-04-29T12:12:56.911Z,6.57
2018-04-29T12:15:23.954Z,5.95
2018-04-29T12:17:51.003Z,6.57
2018-04-29T12:20:18.056Z,6.35
2018-04-29T12:32:31.148Z,6.37
2018-04-29T12:34:58.397Z,6.12
2018-04-29T12:37:25.445Z,6.78
2018-04-29T12:39:52.545Z,7.68
2018-04-29T12:42:19.650Z,6.95
2018-04-29T12:47:20.295Z,7.45
2018-04-29T12:49:47.345Z,7.00
2018-04-29T12:52:15.342Z,7.50
2018-04-29T12:54:43.392Z,7.95
2018-04-29T12:57:11.357Z,7.18
2018-04-29T12:59:38.406Z,6.78
2018-04-29T13:02:05.418Z,6.85
2018-04-29T13:04:32.504Z,7.47
2018-04-29T13:06:59.551Z,7.10
2018-04-29T13:09:26.914Z,7.82
2018-04-29T13:11:53.958Z,7.35
2018-04-29T13:14:21.107Z,6.93
2018-04-29T13:16:48.161Z,7.28
2018-04-29T13:19:15.313Z,6.95
2018-04-29T13:21:42.361Z,6.60
2018-04-29T13:24:09.404Z,6.82
2018-04-29T13:26:36.864Z,6.80
2018-04-29T13:29:03.914Z,6.78
2018-04-29T13:31:30.964Z,6.53
2018-04-29T13:33:59.542Z,8.13
2018-04-29T13:36:26.591Z,7.40
2018-04-29T13:38:53.652Z,6.28
2018-04-29T13:41:20.795Z,6.07
2018-04-29T13:43:47.839Z,6.80
2018-04-29T13:46:14.909Z,6.03
2018-04-29T13:48:41.941Z,6.60
2018-04-29T13:51:08.985Z,6.68
2018-04-29T13:53:35.996Z,6.22
2018-04-29T13:56:03.087Z,6.62
2018-04-29T13:58:30.131Z,6.53
2018-04-29T14:00:57.260Z,6.80
2018-04-29T14:03:24.378Z,6.87
2018-04-29T14:05:51.384Z,6.62
2018-04-29T14:08:18.596Z,6.22
2018-04-29T14:10:45.689Z,6.97
2018-04-29T14:13:12.730Z,6.47
2018-04-29T14:15:39.777Z,6.37
2018-04-29T14:18:06.831Z,6.50
2018-04-29T14:20:33.874Z,6.47
2018-04-29T14:23:01.332Z,6.22
2018-04-29T14:25:28.898Z,6.30
2018-04-29T14:27:55.941Z,6.70
2018-04-29T14:30:22.990Z,5.97
2018-04-29T14:32:50.141Z,6.15
2018-04-29T14:35:17.198Z,5.80
2018-04-29T14:37:44.237Z,6.43
2018-04-29T14:40:11.286Z,6.10
2018-04-29T14:42:38.341Z,6.50
2018-04-29T14:45:05.384Z,5.60
2018-04-29T14:47:32.431Z,5.90
2018-04-29T14:49:59.889Z,6.32
2018-04-29T14:52:26.946Z,6.10
2018-04-29T14:54:53.987Z,6.25
2018-04-29T14:57:21.446Z,6.28
2018-04-29T14:59:48.597Z,7.28
2018-04-29T15:02:15.719Z,5.65
2018-04-29T15:04:42.898Z,6.65
2018-04-29T15:07:10.049Z,6.25
2018-04-29T15:09:37.098Z,5.37
2018-04-29T15:12:04.151Z,6.35
2018-04-29T15:14:31.195Z,6.57
2018-04-29T15:16:58.244Z,5.47
2018-04-29T15:19:25.399Z,5.85
2018-04-29T15:21:59.132Z,5.93
2018-04-29T15:24:38.188Z,5.25
2018-04-29T15:27:24.129Z,6.03
2018-04-29T15:29:51.381Z,6.20
2018-04-29T15:32:39.979Z,5.50
2018-04-29T15:38:44.769Z,5.45
2018-04-29T15:41:21.917Z,6.22
2018-04-29T15:46:54.876Z,5.60
2018-04-29T15:49:40.840Z,5.97
2018-04-29T15:52:29.172Z,6.55
2018-04-29T15:55:14.629Z,7.03
2018-04-29T15:58:01.448Z,6.93
2018-04-29T16:00:48.318Z,6.72
2018-04-29T16:03:15.374Z,7.15
2018-04-29T16:05:42.426Z,7.18
2018-04-29T16:08:09.539Z,7.43
2018-04-29T16:10:36.485Z,8.02
2018-04-29T16:13:04.289Z,7.90
2018-04-29T16:15:31.345Z,8.15
2018-04-29T16:31:03.596Z,8.68
2018-04-29T16:33:31.165Z,9.73
2018-04-29T16:35:59.126Z,8.77
2018-04-29T16:38:26.179Z,9.68
2018-04-29T16:40:53.215Z,10.32
2018-04-29T16:43:22.707Z,10.38
2018-04-29T16:45:49.746Z,11.30
2018-04-29T16:48:17.547Z,10.82
2018-04-29T16:50:44.597Z,11.85
2018-04-29T16:53:11.749Z,11.88
2018-04-29T16:55:39.098Z,12.93
2018-04-29T16:58:06.148Z,12.20
2018-04-29T17:03:18.882Z,13.50
2018-04-29T17:05:45.934Z,14.23
2018-04-29T17:08:12.981Z,12.68
2018-04-29T17:10:40.237Z,12.07
2018-04-29T17:13:07.896Z,11.43
2018-04-29T17:15:34.945Z,12.05
2018-04-29T17:18:02.199Z,11.95
2018-04-29T17:20:29.553Z,13.00
2018-04-29T17:22:57.627Z,13.68
2018-04-29T17:25:25.699Z,14.27
2018-04-29T17:27:52.753Z,14.45
2018-04-29T17:30:21.828Z,15.50
2018-04-29T17:32:51.292Z,14.10
2018-04-29T17:35:18.510Z,13.23
2018-04-29T17:37:45.550Z,14.68
2018-04-29T17:40:12.599Z,13.43
2018-04-29T17:42:40.367Z,12.63
2018-04-29T17:45:14.407Z,13.77
2018-04-29T17:47:55.275Z,12.90
2018-04-29T17:50:42.742Z,13.07
2018-04-29T17:53:31.413Z,14.35
2018-04-29T18:00:31.689Z,15.15
2018-04-29T19:03:14.420Z,19.20
2018-04-29T19:05:47.525Z,17.98
2018-04-29T19:08:15.088Z,18.00
2018-04-29T19:10:42.137Z,18.33
2018-04-29T19:13:09.694Z,17.52
2018-04-29T19:15:36.953Z,17.90
2018-04-29T19:18:04.307Z,17.52
2018-04-29T19:20:31.453Z,17.12
2018-04-29T19:22:58.911Z,18.60
2018-04-29T19:25:27.575Z,17.90
2018-04-29T19:27:54.647Z,18.05
2018-04-29T19:30:22.821Z,17.95
2018-04-29T19:32:50.081Z,17.70
2018-04-29T19:35:18.047Z,19.08
2018-04-29T19:37:45.812Z,18.58
2018-04-29T19:40:14.806Z,19.02
2018-04-29T19:42:42.067Z,19.95
2018-04-29T19:45:14.841Z,17.98
2018-04-29T19:47:45.066Z,17.65
2018-04-29T19:50:13.963Z,19.70
2018-04-29T19:52:42.341Z,17.75
2018-04-29T19:55:11.958Z,18.55
2018-04-29T19:57:44.231Z,18.55
2018-04-29T20:00:11.263Z,18.17
2018-04-29T20:02:38.725Z,18.77
2018-04-29T20:05:06.590Z,18.67
2018-04-29T20:07:33.639Z,18.83
2018-04-29T20:10:00.695Z,18.58
2018-04-29T20:12:27.942Z,18.15
2018-04-29T20:14:56.321Z,19.35
2018-04-29T20:17:23.375Z,19.25
2018-04-29T20:19:50.623Z,20.20
2018-04-29T20:22:17.677Z,19.73
2018-04-29T20:24:45.136Z,19.45
2018-04-29T20:27:13.210Z,19.12
2018-04-29T20:29:40.253Z,19.60
2018-04-29T20:32:07.300Z,20.12
2018-04-29T20:34:38.213Z,19.98
2018-04-29T20:37:05.596Z,20.88
2018-04-29T20:39:33.264Z,20.58
2018-04-29T20:42:00.511Z,20.48
2018-04-29T20:47:48.319Z,20.33
2018-04-29T20:50:39.597Z,21.55
2018-04-29T20:55:55.362Z,21.83
2018-04-29T20:58:22.953Z,21.45
2018-04-29T21:00:50.523Z,21.02
2018-04-29T21:03:19.253Z,20.17
2018-04-29T21:05:46.355Z,20.62
2018-04-29T21:08:14.423Z,20.92
2018-04-29T21:10:42.674Z,20.10
2018-04-29T21:13:09.753Z,19.65
2018-04-29T21:15:37.162Z,21.60
2018-04-29T21:18:04.855Z,19.15
2018-04-29T21:20:33.338Z,21.27
2018-04-29T21:23:00.606Z,20.45
2018-04-29T21:25:29.088Z,20.48
2018-04-29T21:27:56.348Z,20.77
2018-04-29T21:30:25.186Z,20.02
2018-04-29T21:32:52.349Z,22.17
2018-04-29T21:35:19.434Z,22.00
2018-04-29T21:37:47.329Z,21.75
2018-04-29T21:40:15.827Z,24.73
2018-04-29T21:42:43.753Z,22.67
2018-04-29T21:45:11.107Z,22.03
2018-04-29T21:47:38.362Z,22.27
2018-04-29T21:50:05.410Z,22.07
2018-04-29T21:52:32.469Z,24.90
2018-04-29T21:54:59.507Z,23.80
2018-04-29T21:57:26.557Z,25.20
2018-04-29T21:59:54.912Z,23.20
2018-04-29T22:02:21.992Z,24.03
2018-04-29T22:04:49.038Z,23.57
2018-04-29T22:07:16.086Z,23.27
2018-04-29T22:09:43.137Z,26.23
2018-04-29T22:12:10.155Z,25.58
2018-04-29T22:14:37.228Z,24.83
2018-04-29T22:17:04.284Z,24.00
2018-04-29T22:19:31.530Z,25.10
2018-04-29T22:21:59.511Z,25.27
2018-04-29T22:24:26.656Z,26.90
2018-04-29T22:26:53.699Z,26.20
2018-04-29T22:29:20.749Z,26.27
2018-04-29T22:31:47.802Z,26.33
2018-04-29T22:34:14.849Z,26.97
2018-04-29T22:36:41.895Z,24.90
2018-04-29T22:39:08.956Z,27.00
2018-04-29T22:41:35.994Z,27.73
2018-04-29T22:44:03.147Z,29.17
2018-04-29T22:46:30.196Z,27.23
2018-04-29T22:48:57.245Z,28.23
2018-04-29T22:51:24.288Z,28.67
2018-04-29T22:53:51.338Z,28.60
2018-04-29T22:56:18.391Z,29.27
2018-04-29T22:58:45.435Z,28.43
2018-04-29T23:01:13.200Z,29.53
2018-04-29T23:03:40.249Z,31.80
2018-04-29T23:06:07.303Z,29.00
2018-04-29T23:08:34.345Z,28.80
2018-04-29T23:11:02.221Z,29.10
2018-04-29T23:13:29.265Z,28.47
2018-04-29T23:15:56.537Z,29.83
2018-04-29T23:18:23.660Z,29.90
2018-04-29T23:20:50.706Z,30.23
2018-04-29T23:23:17.748Z,31.00
2018-04-29T23:25:44.804Z,31.73
2018-04-29T23:28:11.846Z,31.07
2018-04-29T23:30:38.893Z,30.30
2018-04-29T23:33:05.949Z,31.83
2018-04-29T23:35:32.991Z,29.40
2018-04-29T23:38:00.039Z,30.73
2018-04-29T23:40:27.094Z,30.90
2018-04-29T23:42:55.343Z,30.13
2018-04-29T23:45:22.415Z,31.67
2018-04-29T23:47:55.884Z,31.13
2018-04-29T23:50:23.895Z,30.17
2018-04-29T23:55:29.354Z,30.70
2018-04-29T23:57:56.397Z,32.67
